Terminal Aerodrome Forecast
Issued by NWS Sterling, VA

Current Version | Previous Version | Graphics & Text | Print | Product List | Glossary On
Versions: 1 2 3 4 5 6 7 8 9 10 11 12 13 14 15 16 17 18 19 20 21 22 23
000
FTUS41 KLWX 242048 AAA
TAFDCA
TAF AMD
KDCA 242048Z 2421/2518 18013KT P6SM FEW050 BKN250
     FM250600 17006KT P6SM SCT030
     FM251500 18010KT P6SM BKN030=

USA.gov is the U.S. government's official web portal to all federal, state and local government web resources and services.